Smit Barbados — MSDU8 — position and weather

sailwx.info

Track history (hours):
 
Tides and Currents Weather Stations Pressure Air Temp Water Temp Dewpoint Dewpoint Depression Visibility Wind Speed Wind Dir Waves Ship Positions

Smit Barbados

Last reported at 2015-Mar-23 13:17 UTC. Time now 2015-Apr-01 14:29 UTC.
Position N 53°21' W 002°58'.
Warning: this ship's position is 9 days out of date.

Length 30 m; draft 4.8 m.

Type: Tug. MMSI: 235055303.

Date/timePositionNaut miles runAvg speedWind from/ knotsBaromVisibWave heightAir tempDewpointWater temp
2015-Mar-23 13:17N 53°21' W 002°58'0 0.1
2015-Mar-23 12:33N 53°21' W 002°58'6 5.7
2015-Mar-23 11:33N 53°26' W 003°01'1 0.6
2015-Mar-23 10:33N 53°26' W 002°60'0 0.0
2015-Mar-23 09:33N 53°26' W 002°60'0 0.0
2015-Mar-23 08:33N 53°26' W 002°60'0 0.0
2015-Mar-23 07:33N 53°26' W 002°60'0 0.0
2015-Mar-23 06:33N 53°26' W 002°60'0 0.0
2015-Mar-23 05:34N 53°26' W 002°60'0 0.0
2015-Mar-23 04:33N 53°26' W 002°60'0 0.0
2015-Mar-23 03:33N 53°26' W 002°60'0 0.0
2015-Mar-23 02:33N 53°26' W 002°60'0 0.0
2015-Mar-23 01:33N 53°26' W 002°60'0 0.0
2015-Mar-23 00:33N 53°26' W 002°60'0 0.0
2015-Mar-22 23:33N 53°26' W 002°60'0 0.0
2015-Mar-22 22:34N 53°26' W 002°60'0 0.0
2015-Mar-22 21:33N 53°26' W 002°60'0 0.0
2015-Mar-22 20:33N 53°26' W 002°60'0 0.0
2015-Mar-22 19:33N 53°26' W 002°60'0 0.0
2015-Mar-22 18:34N 53°26' W 002°60'0 0.0
2015-Mar-22 17:34N 53°26' W 002°60'0 0.0
2015-Mar-22 16:33N 53°26' W 002°60'0 0.0
2015-Mar-22 15:34N 53°26' W 002°60'0 0.0
2015-Mar-22 14:33N 53°26' W 002°60'0 0.0
2015-Mar-22 13:33N 53°26' W 002°60'0 0.0
2015-Mar-22 12:33N 53°26' W 002°60'0 0.0
2015-Mar-22 11:34N 53°26' W 002°60'0 0.0
2015-Mar-22 10:33N 53°26' W 002°60'1 0.2
2015-Mar-22 01:33N 53°27' W 003°01'1 0.6
2015-Mar-22 00:33N 53°28' W 003°01'1 1.5
2015-Mar-21 23:33N 53°26' W 003°01'1 1.1
2015-Mar-21 22:34N 53°27' W 003°01'0 0.3
2015-Mar-21 21:33N 53°27' W 003°01'0 0.1
2015-Mar-21 20:33N 53°27' W 003°01'0 0.5
2015-Mar-21 19:33N 53°28' W 003°01'2 1.9
2015-Mar-21 18:33N 53°26' W 003°00'0 0.0
2015-Mar-21 14:04N 53°26' W 003°00'1 1.4
2015-Mar-21 13:33N 53°26' W 003°00'0 0.5
2015-Mar-21 12:33N 53°26' W 003°00'2 1.7
2015-Mar-21 11:33N 53°27' W 003°01'0 0.1
2015-Mar-21 10:33N 53°27' W 003°02'0 0.5
2015-Mar-21 09:33N 53°27' W 003°01'1 1.0
2015-Mar-21 08:33N 53°27' W 003°03'1 0.9
2015-Mar-21 07:33N 53°27' W 003°01'0 0.0
2015-Mar-20 22:33N 53°27' W 003°01'0 0.1
2015-Mar-20 21:33N 53°27' W 003°01'2 1.6
2015-Mar-20 20:33N 53°28' W 003°03'2 1.8
2015-Mar-20 19:33N 53°27' W 003°01'1 0.1
2015-Mar-20 10:25N 53°26' W 003°00'2 1.9
2015-Mar-20 09:33N 53°27' W 003°01'1 0.6
2015-Mar-20 08:33N 53°27' W 003°01'1 1.1
2015-Mar-20 07:33N 53°27' W 003°02'2 1.5
2015-Mar-20 06:33N 53°26' W 003°01'1 0.0
2015-Mar-18 09:33N 53°28' W 003°01'1 0.7
2015-Mar-18 08:33N 53°27' W 003°01'2 2.1
2015-Mar-18 07:33N 53°28' W 003°04'3 2.5
2015-Mar-18 06:33N 53°26' W 003°01'1 0.1
2015-Mar-17 20:33N 53°27' W 003°01'0 0.2
2015-Mar-17 19:33N 53°27' W 003°01'1 1.5
2015-Mar-17 18:34N 53°26' W 003°00'0 0.0
2015-Mar-17 09:06N 53°26' W 003°00'2 3.5
2015-Mar-17 08:33N 53°28' W 003°01'1 0.6
2015-Mar-17 07:33N 53°27' W 003°01'1 0.7
2015-Mar-17 06:33N 53°27' W 003°02'1 0.7
2015-Mar-17 05:29N 53°27' W 003°01'1 1.4
2015-Mar-17 04:34N 53°26' W 003°00'0 0.0
2015-Mar-16 20:33N 53°26' W 003°00'1 1.1
2015-Mar-16 19:33N 53°27' W 003°01'0 0.4
2015-Mar-16 18:33N 53°27' W 003°01'2 1.6
2015-Mar-16 17:34N 53°26' W 003°00'1 0.1
2015-Mar-15 20:33N 53°27' W 003°01'1 0.5
2015-Mar-15 19:33N 53°27' W 003°01'0 0.0
2015-Mar-15 18:33N 53°27' W 003°01'1 0.6
2015-Mar-15 17:33N 53°27' W 003°01'0 0.5
2015-Mar-15 16:33N 53°26' W 003°01'1 0.1
2015-Mar-15 11:04N 53°26' W 003°00'2 3.7
2015-Mar-15 10:33N 53°28' W 003°01'0 0.3
2015-Mar-15 09:33N 53°27' W 003°01'0 0.1
2015-Mar-15 08:33N 53°27' W 003°01'0 0.2
2015-Mar-15 07:33N 53°28' W 003°01'0 0.2
2015-Mar-15 06:33N 53°27' W 003°01'0 0.4
2015-Mar-15 05:33N 53°27' W 003°01'1 0.6
2015-Mar-15 04:33N 53°27' W 003°02'0 0.4
2015-Mar-15 03:33N 53°27' W 003°01'0 0.0
2015-Mar-14 17:34N 53°27' W 003°01'0 0.1
2015-Mar-14 16:34N 53°27' W 003°01'0 0.3
2015-Mar-14 15:34N 53°27' W 003°01'1 1.4
2015-Mar-14 14:33N 53°26' W 003°00'  
Track history (hours):
 
Tides and Currents Weather Stations Pressure Air Temp Water Temp Dewpoint Dewpoint Depression Visibility Wind Speed Wind Dir Waves Ship Positions

Smit Barbados

Last reported at 2015-Mar-23 13:17 UTC. Time now 2015-Apr-01 14:29 UTC.
Position N 53°21' W 002°58'.
Warning: this ship's position is 9 days out of date.

Length 30 m; draft 4.8 m.

Type: Tug. MMSI: 235055303.

Date/timePositionNaut miles runAvg speedWind from/ knotsBaromVisibWave heightAir tempDewpointWater temp
2015-Mar-23 13:17N 53°21' W 002°58'0 0.1
2015-Mar-23 12:33N 53°21' W 002°58'6 5.7
2015-Mar-23 11:33N 53°26' W 003°01'1 0.6
2015-Mar-23 10:33N 53°26' W 002°60'0 0.0
2015-Mar-23 09:33N 53°26' W 002°60'0 0.0
2015-Mar-23 08:33N 53°26' W 002°60'0 0.0
2015-Mar-23 07:33N 53°26' W 002°60'0 0.0
2015-Mar-23 06:33N 53°26' W 002°60'0 0.0
2015-Mar-23 05:34N 53°26' W 002°60'0 0.0
2015-Mar-23 04:33N 53°26' W 002°60'0 0.0
2015-Mar-23 03:33N 53°26' W 002°60'0 0.0
2015-Mar-23 02:33N 53°26' W 002°60'0 0.0
2015-Mar-23 01:33N 53°26' W 002°60'0 0.0
2015-Mar-23 00:33N 53°26' W 002°60'0 0.0
2015-Mar-22 23:33N 53°26' W 002°60'0 0.0
2015-Mar-22 22:34N 53°26' W 002°60'0 0.0
2015-Mar-22 21:33N 53°26' W 002°60'0 0.0
2015-Mar-22 20:33N 53°26' W 002°60'0 0.0
2015-Mar-22 19:33N 53°26' W 002°60'0 0.0
2015-Mar-22 18:34N 53°26' W 002°60'0 0.0
2015-Mar-22 17:34N 53°26' W 002°60'0 0.0
2015-Mar-22 16:33N 53°26' W 002°60'0 0.0
2015-Mar-22 15:34N 53°26' W 002°60'0 0.0
2015-Mar-22 14:33N 53°26' W 002°60'0 0.0
2015-Mar-22 13:33N 53°26' W 002°60'0 0.0
2015-Mar-22 12:33N 53°26' W 002°60'0 0.0
2015-Mar-22 11:34N 53°26' W 002°60'0 0.0
2015-Mar-22 10:33N 53°26' W 002°60'1 0.2
2015-Mar-22 01:33N 53°27' W 003°01'1 0.6
2015-Mar-22 00:33N 53°28' W 003°01'1 1.5
2015-Mar-21 23:33N 53°26' W 003°01'1 1.1
2015-Mar-21 22:34N 53°27' W 003°01'0 0.3
2015-Mar-21 21:33N 53°27' W 003°01'0 0.1
2015-Mar-21 20:33N 53°27' W 003°01'0 0.5
2015-Mar-21 19:33N 53°28' W 003°01'2 1.9
2015-Mar-21 18:33N 53°26' W 003°00'0 0.0
2015-Mar-21 14:04N 53°26' W 003°00'1 1.4
2015-Mar-21 13:33N 53°26' W 003°00'0 0.5
2015-Mar-21 12:33N 53°26' W 003°00'2 1.7
2015-Mar-21 11:33N 53°27' W 003°01'0 0.1
2015-Mar-21 10:33N 53°27' W 003°02'0 0.5
2015-Mar-21 09:33N 53°27' W 003°01'1 1.0
2015-Mar-21 08:33N 53°27' W 003°03'1 0.9
2015-Mar-21 07:33N 53°27' W 003°01'0 0.0
2015-Mar-20 22:33N 53°27' W 003°01'0 0.1
2015-Mar-20 21:33N 53°27' W 003°01'2 1.6
2015-Mar-20 20:33N 53°28' W 003°03'2 1.8
2015-Mar-20 19:33N 53°27' W 003°01'1 0.1
2015-Mar-20 10:25N 53°26' W 003°00'2 1.9
2015-Mar-20 09:33N 53°27' W 003°01'1 0.6
2015-Mar-20 08:33N 53°27' W 003°01'1 1.1
2015-Mar-20 07:33N 53°27' W 003°02'2 1.5
2015-Mar-20 06:33N 53°26' W 003°01'1 0.0
2015-Mar-18 09:33N 53°28' W 003°01'1 0.7
2015-Mar-18 08:33N 53°27' W 003°01'2 2.1
2015-Mar-18 07:33N 53°28' W 003°04'3 2.5
2015-Mar-18 06:33N 53°26' W 003°01'1 0.1
2015-Mar-17 20:33N 53°27' W 003°01'0 0.2
2015-Mar-17 19:33N 53°27' W 003°01'1 1.5
2015-Mar-17 18:34N 53°26' W 003°00'0 0.0
2015-Mar-17 09:06N 53°26' W 003°00'2 3.5
2015-Mar-17 08:33N 53°28' W 003°01'1 0.6
2015-Mar-17 07:33N 53°27' W 003°01'1 0.7
2015-Mar-17 06:33N 53°27' W 003°02'1 0.7
2015-Mar-17 05:29N 53°27' W 003°01'1 1.4
2015-Mar-17 04:34N 53°26' W 003°00'0 0.0
2015-Mar-16 20:33N 53°26' W 003°00'1 1.1
2015-Mar-16 19:33N 53°27' W 003°01'0 0.4
2015-Mar-16 18:33N 53°27' W 003°01'2 1.6
2015-Mar-16 17:34N 53°26' W 003°00'1 0.1
2015-Mar-15 20:33N 53°27' W 003°01'1 0.5
2015-Mar-15 19:33N 53°27' W 003°01'0 0.0
2015-Mar-15 18:33N 53°27' W 003°01'1 0.6
2015-Mar-15 17:33N 53°27' W 003°01'0 0.5
2015-Mar-15 16:33N 53°26' W 003°01'1 0.1
2015-Mar-15 11:04N 53°26' W 003°00'2 3.7
2015-Mar-15 10:33N 53°28' W 003°01'0 0.3
2015-Mar-15 09:33N 53°27' W 003°01'0 0.1
2015-Mar-15 08:33N 53°27' W 003°01'0 0.2
2015-Mar-15 07:33N 53°28' W 003°01'0 0.2
2015-Mar-15 06:33N 53°27' W 003°01'0 0.4
2015-Mar-15 05:33N 53°27' W 003°01'1 0.6
2015-Mar-15 04:33N 53°27' W 003°02'0 0.4
2015-Mar-15 03:33N 53°27' W 003°01'0 0.0
2015-Mar-14 17:34N 53°27' W 003°01'0 0.1
2015-Mar-14 16:34N 53°27' W 003°01'0 0.3
2015-Mar-14 15:34N 53°27' W 003°01'1 1.4
2015-Mar-14 14:33N 53°26' W 003°00'  

Dump ship's entire track history